Dor Peretz

Chief Scout - Maccabi Haifa
22 Oct 2028
Sunday
Process

Personality

Adaptability (6) Ambition (14) Controversy (7) Loyalty (18) Pressure (10) Professionalism (12) Sportsmanship (19) Temperament (1)

Profile

Coaching Style Democratic
License Continental Pro
Determination 12
Man Management 8
Motivating 10
Discipline 4
Job Satisfaction
100%
Fatigue
0%
Role Chief Scout
Wage 58.5K p/w
Contract 14.03.2029

Performance

Behaviour Good
Training Effectiveness
48%
Player Development
20%
Injury Prevention
50%
Tactical Implementation
60%

Recent Events

Attended a recruitment meeting now
Attended a recruitment meeting now
Attended a recruitment meeting 7d ago
Attended a recruitment meeting 7d ago
Attended a recruitment meeting 7d ago
Observed a match 7d ago
Attended a recruitment meeting 14d ago
Observed a match 14d ago

Currently Monitoring

214
Player Club Status Ability Confidence Watched Last Observed Latest Vote
Sayed Abu Farchi Maccabi Tel Aviv Rejected 136 / 133 69% 1 07.08.2028 Reject
Andrey Ivlev Nizhniy Novgorod Active 124 / 117 40% 1 03.07.2028 -
Mattia Esposito Virtus Verona Active 80 / 92 40% 1 03.07.2028 -
Mees Rijks Bristol Rovers Active 128 / 125 40% 1 28.06.2028 -
Daniel Jebbison Bournemouth Active 133 / 121 40% 1 28.06.2028 -
John Yeboah Venezia Active 131 / 127 40% 1 28.06.2028 -
Isaac Oppong Hapoel Raanana Lost 100 / 97 69% 1 12.06.2028 -
Romelle Donovan Brentford Active 128 / 137 40% 7 03.06.2028 -
Fletcher Boyd Accrington Stanley Active 102 / 104 40% 5 03.06.2028 -
Louis Zecevic-John Colchester United Active 108 / 111 40% 1 03.06.2028 -
Charlie Kelman Barnsley Active 109 / 113 40% 1 31.05.2028 -
André Miranda Porto Active 120 / 118 40% 7 30.05.2028 -
Gabe Forsyth Colchester United Active 120 / 110 40% 6 29.05.2028 -
Alphadjo Cissé Lecce Active 127 / 137 40% 3 29.05.2028 -
Jamal Iddrissou Pergolettese Active 101 / 119 40% 1 29.05.2028 -
Gaël Lafont Dolomiti Bellunesi Active 112 / 115 40% 3 27.05.2028 -
Bernardo Lima Porto Active 99 / 122 40% 4 25.05.2028 -
Josh Nichols Oldham Athletic Active 122 / 124 40% 12 25.05.2028 -
Luca Meirelles Kudrivka Active 130 / 131 40% 7 23.05.2028 -
Nana Nuhu WAFA Active 85 / 102 40% 5 23.05.2028 -
Giovanni Cantizano Fulham Active 115 / 131 40% 2 23.05.2028 -
Jan Bürger Northampton Town Active 112 / 120 40% 5 22.05.2028 -
Tyler Fletcher Rotherham United Active 114 / 124 40% 11 22.05.2028 -
Daniel Banjaqui Benfica Active 125 / 129 40% 9 20.05.2028 -
Luca Williams-Barnett Walsall Active 127 / 121 40% 9 20.05.2028 -
Ryan Kavuma-McQueen Accrington Stanley Active 123 / 129 40% 9 20.05.2028 -
Gilbert Bandama Hapoel Kfar Saba Active 126 / 115 40% 8 19.05.2028 Monitor
Gabriel Mec Feirense Active 121 / 135 40% 8 18.05.2028 -
Isaque Obolon Active 126 / 136 40% 2 13.05.2028 -
Kerim Alajbegović Modena Active 141 / 140 40% 4 12.05.2028 -
Jorthy Mokio ADO Den Haag Active 123 / 145 40% 5 12.05.2028 -
Luke Brooke-Smith Chesterfield Active 99 / 105 40% 1 11.05.2028 -
Henrique Carmo Sochi Active 126 / 139 40% 5 30.04.2028 -
Tomás Peixoto Porto Active 98 / 113 40% 1 30.04.2028 -
Ibrahim Fullah Charlton Athletic Active 112 / 130 40% 7 29.04.2028 -
Peter Amidu Acquah Asante Kotoko Active 90 / 110 40% 1 29.04.2028 -
İsak Vural Audace Cerignola Active 124 / 128 40% 1 27.04.2028 -
Leo Pecover Swindon Town Active 89 / 107 40% 6 25.04.2028 -
Igor Tyjon Barrow AFC Active 114 / 119 40% 3 25.04.2028 -
Shea Lacey Crystal Palace Active 137 / 143 40% 1 16.04.2028 -
Amin Nabizada Exeter City Active 106 / 124 40% 2 14.04.2028 -
Oskar Pietuszewski Estrela da Amadora Active 126 / 129 40% 5 03.04.2028 -
Ryan McAidoo Oldham Athletic Active 120 / 123 40% 2 03.04.2028 -
Siyabonga Mabena Bidvest Wits Active 115 / 126 40% 3 30.03.2028 -
Gomolemo Kekana Maritzburg United Active 117 / 117 40% 1 29.03.2028 -
Trey Nyoni Rotherham United Active 136 / 138 40% 8 22.03.2028 -
Ben Broggio Mansfield Town Active 109 / 110 40% 2 22.03.2028 -
Martim Cunha Porto Active 109 / 115 40% 4 18.03.2028 -
Jake Evans Crewe Alexandra Active 103 / 114 40% 4 13.03.2028 -
Lander Astiazarán Real Sociedad Active 114 / 122 40% 2 10.03.2028 -
Oscar Schwartau Norwich City Active 121 / 139 40% 3 10.03.2028 -
Omar Khedr Gillingham Active 108 / 125 40% 1 08.03.2028 -
Alwande Booysen SuperSport United Active 89 / 111 40% 2 01.03.2028 -
Lewis Orford Crewe Alexandra Active 118 / 114 40% 1 11.02.2028 -
Seb Ferdinand Rotherham United Active 113 / 128 40% 1 03.01.2028 -
Luka Andrade Montevideo City Torque Active 104 / 104 40% 1 03.01.2028 -
Tobías Cervera Gimnasia y Esgrima Active 127 / 118 40% 1 31.12.2027 -
Alexis Cuello San Lorenzo Active 135 / 131 40% 1 31.12.2027 -
Rodrigo Bogarín Barracas Central Active 124 / 125 40% 1 31.12.2027 -
Amine Boukamir Charleroi Active 109 / 117 40% 3 30.12.2027 -
Hosea Michael Remo Stars Active 81 / 96 40% 8 30.12.2027 -
Victor Hernandez Santa Fe Active 127 / 129 40% 6 29.12.2027 -
Lucas Camejo River Plate Active 88 / 92 40% 8 27.12.2027 -
Azizbek To'lqinbekov Bunyodkor Active 102 / 104 40% 9 26.12.2027 -
Giovanni Leoni Lincoln City Active 141 / 143 40% 6 26.12.2027 -
Esquerdinha Notts County Active 125 / 134 40% 5 25.12.2027 -
Olaniyi Saheed Kwara United Active 87 / 102 40% 2 24.12.2027 -
Matias Siltanen Malmo FF Active 113 / 131 40% 9 22.12.2027 -
Francisco Machis Llaneros Active 86 / 96 40% 6 19.12.2027 -
Daniel Idoko Ikorodu City Active 94 / 101 40% 5 17.12.2027 -
Ignacio Fernández Boston River Active 84 / 94 40% 4 17.12.2027 -
David Asayure Lokomotivi Active 87 / 79 40% 1 17.12.2027 -
Mohamed Moussa Koïta Mathare United Active 86 / 106 40% 4 16.12.2027 -
Onyeuche Ujunwa Ikorodu City Active 97 / 97 40% 5 15.12.2027 -
Matías Canedo Rampla Juniors Active 86 / 97 40% 4 14.12.2027 -
Jon Esenga IF Elfsborg Active 84 / 105 40% 1 14.12.2027 -
Nicolas Sport Recife Active 99 / 116 40% 2 11.12.2027 -
Olivier Mambwa Young Boys Active 106 / 118 40% 1 11.12.2027 -
Tiago Gordillo San Miguel Active 82 / 95 40% 5 09.12.2027 -
Joel Ezra Enyimba Active 102 / 96 40% 4 08.12.2027 -
Gideon Manaseh Ikorodu City Active 82 / 99 40% 2 06.12.2027 -
Ivan Borges Defensores Active 86 / 85 40% 7 19.11.2027 -
Adrian Skogmar Malmo FF Active 119 / 120 40% 3 08.11.2027 -
David Damboama El-Kanemi Warriors Active 91 / 86 40% 3 07.11.2027 -
Lucas Nicol Mjondalen Active 68 / 89 40% 1 06.11.2027 -
Hugo Rojas Instituto Active 106 / 109 40% 1 01.11.2027 -
Nahuel Leivas Montevideo City Torque Active 97 / 103 40% 1 31.10.2027 -
Santiago Colidio Liepaja Active 88 / 100 40% 1 27.10.2027 -
Godwin Oham Warri Wolves Active 96 / 87 40% 4 26.10.2027 -
Dato Chakvetadze Zugdidi Active 99 / 101 40% 1 23.10.2027 -
Honest Ahanor Atalanta Active 143 / 148 40% 1 22.10.2027 -
Matthew Litherland Harrogate Town Active 112 / 112 40% 1 21.10.2027 -
Diego Vargas Universidad de Concepcion Active 93 / 97 40% 2 20.10.2027 -
Esteban de Lima Tacuarembo Active 94 / 93 40% 1 19.10.2027 -
Agustín Obregón River Plate Active 106 / 121 40% 1 16.10.2027 -
Luciano Posadas Central Córdoba SdE Active 90 / 99 40% 1 16.10.2027 -
Yiandro Raap Ilves Active 95 / 106 40% 2 11.10.2027 -
Yury Oyarzo Racing Active 86 / 96 40% 1 11.10.2027 -
Juan Camilo Córdoba Deportivo Pereira Active 79 / 92 40% 2 06.10.2027 -
Nazareno Roselli Defensa y Justicia Active 111 / 115 40% 1 28.09.2027 -
Chibueze Oputa Rangers International Active 93 / 82 40% 2 24.09.2027 -
Mpho Khethang FC Diarra Active 89 / 94 40% 6 22.09.2027 -
Eliás Montiel Borussia Dortmund Active 139 / 132 40% 2 22.09.2027 -
Lucan Louw US Bougouni Active 79 / 97 40% 1 18.09.2027 -
Onuorah Onyedika Kun Khalifat Active 85 / 84 40% 1 13.09.2027 -
Oscar Steinke Brånby Hammarby Active 107 / 112 40% 1 13.09.2027 -
Celías Ingenthron Platense Active 113 / 119 40% 1 12.09.2027 -
Sascha Britschgi AC Milan Active 117 / 130 40% 4 11.08.2027 -
Federico Matarán Giana Erminio Active 110 / 104 40% 3 11.08.2027 -
Gonçalo Oliveira Benfica Active 112 / 113 40% 8 07.08.2027 -
Leandro Martins Benfica Active 108 / 105 40% 11 07.08.2027 -
Ronan Kpakio AC Milan Active 110 / 134 40% 1 07.08.2027 -
Edwin Asamoah Berekum Chelsea Active 84 / 79 40% 11 06.08.2027 -
Matthew Targett Hull City Active 124 / 133 40% 1 05.08.2027 -
Mats Egbring Heerenveen Active 92 / 109 40% 1 05.08.2027 -
Pedro Vian Seewald Dolomiti Bellunesi Active 94 / 108 40% 1 04.08.2027 -
Gaetano Castrovilli Cesena Active 127 / 141 40% 1 02.08.2027 -
Mikey Johnston West Bromwich Albion Active 125 / 115 40% 1 02.08.2027 -
Sam Bell Bristol City Active 136 / 121 40% 1 02.08.2027 -
Joel Bagan Cardiff City Active 113 / 121 40% 1 26.07.2027 -
Hector Kyprianou Watford Active 118 / 129 40% 1 26.07.2027 -
Mario Pašalić Atalanta Active 146 / 140 40% 1 14.07.2027 -
Isaiah Jones Luton Town Active 131 / 126 40% 1 14.07.2027 -
Zane Albarus Shrewsbury Town Active 106 / 111 40% 1 13.07.2027 -
Kiani Inge Groningen Active 113 / 116 40% 5 10.07.2027 -
Charlie Gray Fleetwood Town Active 91 / 92 40% 3 07.07.2027 -
Andrea Bertoncini Triestina Active 85 / 95 40% 4 06.07.2027 -
Guy Dezent Maccabi Petach Tikva Active 100 / 100 40% 1 04.07.2027 -
George Hoddle Cambridge United Active 77 / 91 40% 2 03.07.2027 -
Miguel Figueiredo Benfica Active 106 / 128 40% 6 26.06.2027 -
Olalekan Adeleke Remo Stars Active 95 / 85 40% 1 24.06.2027 -
Romuald Sawadogo Hapoel Raanana Lost 90 / 96 40% 6 23.06.2027 -
Daniel Dennis Ikorodu City Active 97 / 105 40% 1 23.06.2027 -
Teboho Mokoena Black Aces Active 88 / 96 40% 4 22.06.2027 -
Tiago Freitas Benfica Active 106 / 121 40% 8 21.06.2027 -
Riley Owen Stevenage Active 101 / 107 40% 9 14.06.2027 -
Sam Greenwood Bristol City Active 116 / 126 40% 1 02.06.2027 -
Che Adams Torino Active 145 / 139 40% 1 31.05.2027 -
Ettore Gliozzi Mantova Active 109 / 113 40% 1 31.05.2027 -
Rivaldo Mkhize Black Aces Active 84 / 87 40% 6 30.05.2027 -
Kazunari Kita Real Sociedad Active 97 / 100 40% 3 30.05.2027 -
Ahmed Akinyele Remo Stars Active 98 / 92 40% 1 30.05.2027 -
Jenson Jones Walsall Active 102 / 107 40% 4 29.05.2027 -
Bence Dárdai VfL Wolfsburg Active 135 / 130 40% 2 29.05.2027 -
Wessel Kuhn PSV Active 112 / 112 40% 1 27.05.2027 -
Rhys Walters Port Vale Active 98 / 115 40% 2 26.05.2027 -
Chari Giwa US Bougouni Active 69 / 73 40% 1 25.05.2027 -
Issa Yusuf Shooting Stars Active 77 / 85 40% 1 23.05.2027 -
Olivier Leroux Mouscron Active 89 / 106 40% 3 20.05.2027 -
Riyad Idrissi Cagliari Active 134 / 126 40% 2 12.05.2027 -
Ezra Mayers West Ham United Active 120 / 132 40% 4 12.05.2027 -
Konta Ismaily Active 100 / 88 40% 1 02.05.2027 -
Maldini Kacurri Grimsby Town Active 84 / 98 40% 1 29.04.2027 -
David Ozoh Derby County Active 121 / 126 40% 2 22.04.2027 -
James Dornelly Peterborough United Active 97 / 104 40% 1 03.04.2027 -
Alessandro Zoboletti Sambenedettese Active 81 / 91 40% 1 01.04.2027 -
Cemran Dansin Orlando Pirates Active 105 / 106 40% 4 24.03.2027 -
Caleb Yirenkyi Coventry City Active 134 / 149 40% 1 20.03.2027 -
Samuele di Benedetto Twente Active 118 / 115 40% 1 19.03.2027 -
Afriyie Sulemana WAFA Active 91 / 86 40% 1 09.03.2027 -
Kamaldeen Atiemo Wa All Stars Active 110 / 104 40% 1 03.03.2027 -
Kubrat Onasci Septemvri Active 101 / 108 40% 1 28.02.2027 -
Maxim Radchenko Rostov Active 88 / 97 40% 1 21.02.2027 -
Alexandr Burkov Rodina M Active 79 / 73 40% 1 15.02.2027 -
Kyllian Antonio RC Lens Active 109 / 106 40% 1 04.02.2027 -
Igor Zlatanović Hapoel Beer Sheva Active 115 / 124 40% 1 31.01.2027 -
Simphiwe Selepe Orlando Pirates Active 116 / 127 40% 3 27.01.2027 -
Per Kloosterboer Utrecht Active 85 / 110 40% 1 17.01.2027 -
Diogo Monteiro Tondela Active 112 / 105 40% 2 16.01.2027 -
Ivan Shilenok Zenit Active 82 / 94 40% 1 14.01.2027 -
Arthur Gomes Dinamo Moscow Active 114 / 132 40% 5 01.01.2027 -
Younes Ebnoutalib Eintracht Frankfurt Active 119 / 133 40% 1 01.01.2027 -
Kwadwo Duah Ludogorets Active 133 / 135 40% 10 28.12.2026 -
Franko Kovačević Ferencvaros Active 116 / 115 40% 5 27.12.2026 -
Egas Cacintura Akhmat Grozny Active 116 / 112 40% 4 21.12.2026 -
Ioannis Pittas CSKA Sofia Active 123 / 116 40% 4 20.12.2026 -
Tio Cipot NK Maribor Active 126 / 111 40% 5 17.12.2026 -
Sam Amo-Ameyaw RC Strasbourg Active 118 / 124 40% 1 15.12.2026 -
Patrik Kovács Fehervar Active 109 / 98 40% 1 14.12.2026 -
Ivo Mammini Beitar Jerusalem Active 117 / 119 40% 1 07.12.2026 -
Hamode Kanaan Hapoel Beer Sheva Active 124 / 123 40% 5 05.12.2026 Monitor
Samuel Kalu Botev Plovdiv Active 125 / 120 40% 3 28.11.2026 -
Federico Martínez MFK Ruzomberok Active 107 / 122 40% 9 21.11.2026 -
Ammar Ramadan DAC Dunajska Streda Active 115 / 124 40% 2 21.11.2026 -
Ido Cohen Maccabi Petach Tikva Active 101 / 99 40% 1 19.11.2026 -
Matej Trusa DAC Dunajska Streda Active 125 / 108 40% 1 15.11.2026 -
Mirlind Daku Spartak Moscow Active 124 / 128 40% 4 12.11.2026 -
Ilja Rozhkov Rubin Active 110 / 113 40% 1 08.11.2026 -
Maximiliano Gómez Nacional Active 128 / 120 40% 2 05.11.2026 -
Matheus Davó Maccabi Netanya Active 110 / 111 40% 2 01.11.2026 -
Gaspar Duarte Rosario Central Active 112 / 123 40% 1 01.11.2026 -
Yuki Ohashi Hapoel Tel Aviv Active 110 / 124 40% 2 22.10.2026 -
Terem Moffi Hamburger SV Active 130 / 138 40% 7 17.10.2026 -
Manfred Ugalde Spartak Moscow Active 119 / 126 40% 2 15.10.2026 -
Law McCabe Middlesbrough Active 101 / 120 40% 1 12.10.2026 -
Thiago Acosta River Plate Active 105 / 117 40% 1 12.10.2026 -
François Kamano Sochi Active 110 / 116 40% 2 08.10.2026 -
Matheus Aiás Noah Active 130 / 125 40% 2 07.10.2026 -
Roman Dixon Walsall Active 90 / 99 40% 1 05.10.2026 -
José Cabrera Union Magdalena Active 93 / 86 40% 1 05.10.2026 -
Maeson King Hull City Active 101 / 114 40% 1 05.10.2026 -
Stanislav Ivanov Arda Active 108 / 119 40% 1 02.10.2026 -
Ramiro Ruiz Rodríguez Atlético Tucumán Active 121 / 124 40% 3 26.09.2026 -
Mustapha Sangaré Levski Active 104 / 115 40% 1 26.09.2026 -
Leandro Godoy CSKA Sofia Active 110 / 124 40% 2 20.09.2026 -
Marcelo Torres Gimnasia La Plata Active 111 / 113 40% 2 19.09.2026 -
Husain Norchayev Navbahor Active 110 / 113 40% 1 19.09.2026 -
Yarden Shua Beitar Jerusalem Active 125 / 133 40% 1 19.09.2026 -
Tamerlan Musaev CSKA Moscow Active 107 / 120 40% 2 13.09.2026 -
Armstrong Oko-Flex Levski Active 107 / 128 40% 1 09.09.2026 -
Mykola Kukharevych Slovan Bratislava Active 107 / 121 40% 1 07.09.2026 -
Sam Lammers PSV Active 110 / 117 40% 2 24.08.2026 -
Miodrag Pivaš Newcastle United Active 106 / 103 40% 1 19.08.2026 -
Valentín Culasso Talleres Active 90 / 101 40% 1 03.08.2026 -